Dillon, CO

2:13 AM MDT on May 27, 2015 (GMT -0600)
Kremmling | | Change Station
CLOSE
Current Station
Airport
Location: Kremmling,
Elevation: 7411 ft
Nearby Weather Stations

Elev 7411 ft 40.05 °N, 106.37 °W | Updated 18 minutes ago

Mostly Cloudy
Mostly Cloudy
46 °F
Feels Like 45 °F
N
4
Wind Variable Wind from NE

Today
High -- | Low -- °F
--% Chance of Precip.
Yesterday
High -- | Low -- °F
Precip. -- in
5:41 AM 8:21 PM
Waxing Gibbous, 65% visible
Pressure 30.19 in
Visibility 10.0 miles
Clouds Scattered Clouds 3000 ft
Mostly Cloudy 9500 ft
Windchill 45 °F
Dew Point 37 °F
Humidity 71%
Rainfall 0.00 in
Snow Depth Not available.
UV 0 out of 12
Pollen 8.20 out of 12
Air Quality Not available.
Flu Activity Sporadic
METAR K20V 270755Z AUTO 05003KT 10SM SCT030 BKN095 08/03 A3019 RMK AO2

More Conditions Fewer Conditions

Pressure 30.19 in
Visibility 10.0 miles
Clouds Scattered Clouds 3000 ft
Mostly Cloudy 9500 ft
Windchill 45 °F
Dew Point 37 °F
Humidity 71%
Rainfall 0.00 in
Snow Depth Not available.
UV 0 out of 12
Pollen 8.20 out of 12
Air Quality Not available.
Flu Activity Sporadic
METAR K20V 270755Z AUTO 05003KT 10SM SCT030 BKN095 08/03 A3019 RMK AO2

More Conditions Fewer Conditions

10-Day Weather Forecast

Almanac

Astronomy

May. 27, 2015 Rise Set
Actual Time
Civil Twilight
Nautical Twilight
Astronomical Twilight
Moon
Length of Visible Light
Length of Day
Tomorrow will be .
, % of the Moon is Illuminated

Today's Extremes

State Highs State Lows

Community

WunderPhotos

Upload Photos

1,824,634 photos uploaded!

WunderBlogs® & News

Nearby

Air Quality

  Air Quality AQ Index Pollutant
Not available.

Snow Depth

Station Depth Elevation

Earthquake Activity

City Distance Mag. Time & Date
Minimum magnitude displayed is 2.5.

Coastal Water Temperatures

Place Temperature

Stations

Nearby Weather Stations

Station Location Temp. Windchill Dew Point Humidity Wind Precip. Elev Updated Type